KBOI

Boise Air Terminal / Gowen Field Airport

Boise, Idaho, USA
METAR KBOI 140453Z 00000KT 10SM CLR 01/M08 A3052 RMK AO2 SLP352 T00111083
Observed Flight Rules
Nov-14 @ 04:53 UTC (23 minutes ago) Visual Flight Rules
Visibility Clouds
10 miles
  • Clear skies
Temperatures Readings
Current 1°C / 34°F
Dewpoint -8°C / 18°F
Humidity 51%
Altimeter 30.52" Hg
Pressure 1035.2 hPa
Elevation 875
METAR KBOI 140453Z 00000KT 10SM CLR 01/M08 A3052 RMK AO2 SLP352 T00111083
Observed Flight Rules
Nov-14 @ 04:53 UTC
(23 minutes ago)
VFR
Clouds
  • Clear skies
Temperature Dewpoint
1°C / 34°F -8°C / 18°F
Humidity Altimeter Pressure
51% 30.52" Hg 1035.2 hPa